createdAt,value
2023-07-17T00:01:40.456Z,6.63
2023-07-17T00:06:44.944Z,7.70
2023-07-17T00:11:48.058Z,8.63
2023-07-17T00:16:51.291Z,7.23
2023-07-17T00:21:55.788Z,7.40
2023-07-17T00:26:58.897Z,7.30
2023-07-17T00:32:01.998Z,7.30
2023-07-17T00:37:07.102Z,7.37
2023-07-17T00:42:10.424Z,7.73
2023-07-17T00:47:14.469Z,9.93
2023-07-17T00:52:19.199Z,7.30
2023-07-17T00:57:26.147Z,10.00
2023-07-17T01:02:29.987Z,7.90
2023-07-17T01:07:34.902Z,7.97
2023-07-17T01:12:39.069Z,7.97
2023-07-17T01:17:43.104Z,7.63
2023-07-17T01:22:57.445Z,8.40
2023-07-17T01:28:00.635Z,8.17
2023-07-17T01:33:03.912Z,8.67
2023-07-17T01:38:08.900Z,8.90
2023-07-17T01:43:12.062Z,9.07
2023-07-17T01:48:16.323Z,8.80
2023-07-17T01:53:22.924Z,8.80
2023-07-17T01:58:26.053Z,9.23
2023-07-17T02:03:30.446Z,9.00
2023-07-17T02:08:34.888Z,9.20
2023-07-17T02:13:38.339Z,9.03
2023-07-17T02:18:42.145Z,10.10
2023-07-17T02:23:46.667Z,9.20
2023-07-17T02:28:49.772Z,9.30
2023-07-17T02:33:53.077Z,8.83
2023-07-17T02:38:57.848Z,9.83
2023-07-17T02:44:01.235Z,9.80
2023-07-17T02:49:04.751Z,8.07
2023-07-17T02:54:09.195Z,10.23
2023-07-17T02:59:12.278Z,9.17
2023-07-17T03:04:15.495Z,9.63
2023-07-17T03:09:19.957Z,8.70
2023-07-17T03:14:23.079Z,9.10
2023-07-17T03:19:26.178Z,10.23
2023-07-17T03:24:30.838Z,10.30
2023-07-17T03:29:34.397Z,10.40
2023-07-17T03:34:38.184Z,8.97
2023-07-17T03:39:42.689Z,11.00
2023-07-17T03:44:45.985Z,10.07
2023-07-17T03:49:49.420Z,9.27
2023-07-17T03:54:53.852Z,10.33
2023-07-17T03:59:57.647Z,10.80
2023-07-17T04:05:01.450Z,10.33
2023-07-17T04:10:06.554Z,10.20
2023-07-17T04:15:11.013Z,10.10
2023-07-17T04:20:14.139Z,10.17
2023-07-17T04:25:18.768Z,9.80
2023-07-17T04:30:21.883Z,9.53
2023-07-17T04:35:25.028Z,10.23
2023-07-17T04:40:29.509Z,10.10
2023-07-17T04:45:33.138Z,10.53
2023-07-17T04:50:36.276Z,10.20
2023-07-17T04:55:40.743Z,10.43
2023-07-17T05:00:47.252Z,12.33
2023-07-17T05:05:50.687Z,9.40
2023-07-17T05:10:59.095Z,9.50
2023-07-17T05:16:02.221Z,8.83
2023-07-17T05:21:05.347Z,8.87
2023-07-17T05:26:09.750Z,9.30
2023-07-17T05:31:12.888Z,8.80
2023-07-17T05:36:16.018Z,8.87
2023-07-17T05:41:20.691Z,9.23
2023-07-17T05:46:23.952Z,8.33
2023-07-17T05:51:27.392Z,9.27
2023-07-17T05:56:32.196Z,10.23
2023-07-17T06:01:35.920Z,9.47
2023-07-17T06:06:39.020Z,8.47
2023-07-17T06:11:43.458Z,8.93
2023-07-17T06:16:46.580Z,7.83
2023-07-17T06:21:49.772Z,8.77
2023-07-17T06:26:56.148Z,9.87
2023-07-17T06:32:00.348Z,10.23
2023-07-17T06:37:04.751Z,11.43
2023-07-17T06:42:10.043Z,10.20
2023-07-17T06:47:25.235Z,6.00
2023-07-17T06:52:39.171Z,8.00
2023-07-17T06:57:44.098Z,5.20
2023-07-17T07:02:47.294Z,5.72
2023-07-17T07:07:50.409Z,6.15
2023-07-17T07:12:55.211Z,6.82
2023-07-17T07:17:58.395Z,7.75
2023-07-17T07:23:01.582Z,7.05
2023-07-17T07:28:06.493Z,6.20
2023-07-17T07:33:09.771Z,7.13
2023-07-17T07:38:12.953Z,10.80
2023-07-17T07:43:17.660Z,7.65
2023-07-17T07:48:20.748Z,6.57
2023-07-17T07:53:23.874Z,9.98
2023-07-17T07:58:28.457Z,9.63
2023-07-17T08:03:32.448Z,9.70
2023-07-17T08:08:35.911Z,6.05
2023-07-17T08:13:40.810Z,6.75
2023-07-17T08:18:44.099Z,6.72
2023-07-17T08:23:47.751Z,4.85
2023-07-17T08:28:52.237Z,5.95
2023-07-17T08:33:55.881Z,5.15
2023-07-17T08:38:59.232Z,6.55
2023-07-17T08:44:04.521Z,5.13
2023-07-17T08:49:08.168Z,5.25
2023-07-17T08:54:27.948Z,6.88
2023-07-17T08:59:35.647Z,5.13
2023-07-17T09:04:39.087Z,5.32
2023-07-17T09:09:42.201Z,4.20
2023-07-17T09:14:49.384Z,4.65
2023-07-17T09:19:52.839Z,4.88
2023-07-17T09:24:56.946Z,7.35
2023-07-17T09:30:10.213Z,4.72
2023-07-17T09:35:13.620Z,5.60
2023-07-17T09:40:19.698Z,5.47
2023-07-17T09:45:25.594Z,6.25
2023-07-17T09:50:28.897Z,4.18
2023-07-17T09:55:34.408Z,5.15
2023-07-17T10:00:42.465Z,5.47
2023-07-17T10:05:45.854Z,4.78
2023-07-17T10:10:48.971Z,4.85
2023-07-17T10:15:53.759Z,4.10
2023-07-17T10:20:57.479Z,4.82
2023-07-17T10:26:09.019Z,5.05
2023-07-17T10:31:20.034Z,4.97
2023-07-17T10:36:39.216Z,5.00
2023-07-17T10:41:43.923Z,4.63
2023-07-17T10:46:49.528Z,3.10
2023-07-17T10:51:53.014Z,4.00
2023-07-17T10:56:57.458Z,3.35
2023-07-17T11:02:05.417Z,3.45
2023-07-17T11:07:09.774Z,4.00
2023-07-17T11:12:13.035Z,4.00
2023-07-17T11:17:17.519Z,4.47
2023-07-17T11:22:20.634Z,5.05
2023-07-17T11:27:23.795Z,4.38
2023-07-17T11:32:30.393Z,4.47
2023-07-17T11:37:35.370Z,2.63
2023-07-17T11:42:54.808Z,3.50
2023-07-17T11:48:00.069Z,4.57
2023-07-17T11:53:06.564Z,3.38
2023-07-17T11:58:16.959Z,4.13
2023-07-17T12:03:21.873Z,4.00
2023-07-17T12:08:25.107Z,7.43
2023-07-17T12:13:28.195Z,4.47
2023-07-17T12:18:32.637Z,4.82
2023-07-17T12:23:35.768Z,3.45
2023-07-17T12:28:38.916Z,3.13
2023-07-17T12:33:45.258Z,3.63
2023-07-17T12:38:48.542Z,3.25
2023-07-17T12:43:51.819Z,3.33
2023-07-17T12:48:56.228Z,3.05
2023-07-17T12:53:59.347Z,4.40
2023-07-17T12:59:02.543Z,3.30
2023-07-17T13:04:07.108Z,4.75
2023-07-17T13:09:10.435Z,2.53
2023-07-17T13:14:13.535Z,3.13
2023-07-17T13:19:19.388Z,3.10
2023-07-17T13:24:24.168Z,3.95
2023-07-17T13:29:27.304Z,5.47
2023-07-17T13:34:31.769Z,3.92
2023-07-17T13:39:34.922Z,3.95
2023-07-17T13:44:38.006Z,3.97
2023-07-17T13:49:43.104Z,3.47
2023-07-17T13:54:46.492Z,2.85
2023-07-17T13:59:53.134Z,3.30
2023-07-17T14:04:58.060Z,3.28
2023-07-17T14:10:01.183Z,3.85
2023-07-17T14:15:04.761Z,4.03
2023-07-17T14:20:10.544Z,4.18
2023-07-17T14:25:13.673Z,2.75
2023-07-17T14:30:17.403Z,3.63
2023-07-17T14:35:22.174Z,3.70
2023-07-17T14:40:25.315Z,5.50
2023-07-17T14:45:28.418Z,3.15
2023-07-17T14:50:32.979Z,3.70
2023-07-17T14:55:37.200Z,3.50
2023-07-17T15:00:40.488Z,4.43
2023-07-17T15:05:45.023Z,2.33
2023-07-17T15:10:48.167Z,2.85
2023-07-17T15:15:51.316Z,3.03
2023-07-17T15:20:55.873Z,2.80
2023-07-17T15:25:59.184Z,2.97
2023-07-17T15:31:02.539Z,4.38
2023-07-17T15:36:07.556Z,2.95
2023-07-17T15:41:10.680Z,2.90
2023-07-17T15:46:13.790Z,2.70
2023-07-17T15:51:18.523Z,4.00
2023-07-17T15:56:21.847Z,4.82
2023-07-17T16:01:25.350Z,2.85
2023-07-17T16:06:31.079Z,4.13
2023-07-17T16:11:34.529Z,5.10
2023-07-17T16:16:38.203Z,4.13
2023-07-17T16:21:42.714Z,2.42
2023-07-17T16:26:45.785Z,3.60
2023-07-17T16:31:48.874Z,3.00
2023-07-17T16:36:53.330Z,4.57
2023-07-17T16:41:56.567Z,2.45
2023-07-17T16:46:59.799Z,3.97
2023-07-17T16:52:04.696Z,5.65
2023-07-17T16:57:08.313Z,3.53
2023-07-17T17:02:11.612Z,3.17
2023-07-17T17:07:16.200Z,3.70
2023-07-17T17:12:19.365Z,3.30
2023-07-17T17:17:22.560Z,4.82
2023-07-17T17:22:27.305Z,6.15
2023-07-17T17:27:30.860Z,4.30
2023-07-17T17:32:34.121Z,3.75
2023-07-17T17:37:38.621Z,4.15
2023-07-17T17:42:42.104Z,3.05
2023-07-17T17:47:45.266Z,3.40
2023-07-17T17:52:51.528Z,2.63
2023-07-17T17:57:54.606Z,2.53
2023-07-17T18:02:57.861Z,2.80
2023-07-17T18:08:02.414Z,2.40
2023-07-17T18:13:05.515Z,2.40
2023-07-17T18:18:08.878Z,4.25
2023-07-17T18:23:13.430Z,4.10
2023-07-17T18:28:16.582Z,3.45
2023-07-17T18:33:19.641Z,2.08
2023-07-17T18:38:24.423Z,2.63
2023-07-17T18:43:28.039Z,2.97
2023-07-17T18:48:31.144Z,3.00
2023-07-17T18:53:35.593Z,2.28
2023-07-17T18:58:38.687Z,2.58
2023-07-17T19:03:41.840Z,3.25
2023-07-17T19:08:46.757Z,2.83
2023-07-17T19:13:49.852Z,2.13
2023-07-17T19:18:53.105Z,3.90
2023-07-17T19:23:57.998Z,3.17
2023-07-17T19:29:01.339Z,3.87
2023-07-17T19:34:04.443Z,3.30
2023-07-17T19:39:09.172Z,4.53
2023-07-17T19:44:13.008Z,4.60
2023-07-17T19:49:16.092Z,5.20
2023-07-17T19:54:20.718Z,6.90
2023-07-17T19:59:23.785Z,4.30
2023-07-17T20:04:27.141Z,7.60
2023-07-17T20:09:33.498Z,4.37
2023-07-17T20:14:36.642Z,8.50
2023-07-17T20:19:39.719Z,5.67
2023-07-17T20:24:44.166Z,5.47
2023-07-17T20:29:47.556Z,4.40
2023-07-17T20:34:50.734Z,4.57
2023-07-17T20:39:55.519Z,5.67
2023-07-17T20:44:58.971Z,4.73
2023-07-17T20:50:02.705Z,5.77
2023-07-17T20:55:08.283Z,4.00
2023-07-17T21:00:13.676Z,5.10
2023-07-17T21:05:24.957Z,4.93
2023-07-17T21:10:29.643Z,6.13
2023-07-17T21:15:33.424Z,5.07
2023-07-17T21:20:36.717Z,4.27
2023-07-17T21:25:41.652Z,5.67
2023-07-17T21:30:45.747Z,4.83
2023-07-17T21:35:48.894Z,4.97
2023-07-17T21:40:53.668Z,4.80
2023-07-17T21:45:56.803Z,4.70
2023-07-17T21:51:00.645Z,5.90
2023-07-17T21:56:05.574Z,5.27
2023-07-17T22:01:08.738Z,4.80
2023-07-17T22:06:12.209Z,4.93
2023-07-17T22:11:17.246Z,6.87
2023-07-17T22:16:22.099Z,5.20
2023-07-17T22:21:26.064Z,5.83
2023-07-17T22:26:30.947Z,5.07
2023-07-17T22:31:34.104Z,4.63
2023-07-17T22:36:37.248Z,4.50
2023-07-17T22:41:41.862Z,4.93
2023-07-17T22:46:44.985Z,4.83
2023-07-17T22:51:48.177Z,4.83
2023-07-17T22:56:52.824Z,6.53
2023-07-17T23:01:56.292Z,7.27
2023-07-17T23:06:59.451Z,4.77
2023-07-17T23:12:04.085Z,6.50
2023-07-17T23:17:07.937Z,5.03
2023-07-17T23:22:11.068Z,5.43
2023-07-17T23:27:15.510Z,4.63
2023-07-17T23:32:18.713Z,4.30
2023-07-17T23:37:22.523Z,3.80
2023-07-17T23:42:28.729Z,4.40
2023-07-17T23:47:31.867Z,4.00
2023-07-17T23:52:35.356Z,4.10
2023-07-17T23:57:40.148Z,5.10
